createdAt,value
2022-12-20T06:55:14.565Z,21.20
2022-12-20T06:57:41.779Z,25.63
2022-12-20T07:00:12.706Z,20.50
2022-12-20T07:02:40.009Z,21.40
2022-12-20T07:05:08.764Z,24.67
2022-12-20T07:07:44.779Z,24.05
2022-12-20T07:10:12.929Z,23.90
2022-12-20T07:15:29.192Z,24.08
2022-12-20T07:17:56.461Z,19.58
2022-12-20T07:20:23.567Z,20.45
2022-12-20T07:22:50.703Z,21.27
2022-12-20T07:25:17.960Z,22.90
2022-12-20T07:27:51.552Z,23.70
2022-12-20T07:30:19.562Z,23.92
2022-12-20T07:32:47.468Z,24.77
2022-12-20T07:35:15.309Z,22.00
2022-12-20T07:37:43.324Z,21.38
2022-12-20T07:40:12.081Z,27.77
2022-12-20T07:42:44.599Z,23.05
2022-12-20T07:45:15.666Z,20.58
2022-12-20T07:47:43.715Z,22.55
2022-12-20T07:50:11.855Z,24.42
2022-12-20T07:52:40.408Z,22.73
2022-12-20T07:55:08.788Z,26.17
2022-12-20T07:57:56.179Z,25.75
2022-12-20T08:00:25.013Z,22.70
2022-12-20T08:02:57.024Z,21.42
2022-12-20T08:05:26.273Z,22.85
2022-12-20T08:07:59.307Z,22.55
2022-12-20T08:10:27.839Z,25.63
2022-12-20T08:12:56.082Z,27.38
2022-12-20T08:15:23.699Z,25.08
2022-12-20T08:17:51.382Z,23.85
2022-12-20T08:20:18.968Z,24.02
2022-12-20T08:22:49.447Z,27.65
2022-12-20T08:25:17.064Z,22.77
2022-12-20T08:27:44.924Z,26.23
2022-12-20T08:30:12.784Z,24.60
2022-12-20T08:32:40.150Z,22.98
2022-12-20T08:35:08.370Z,22.88
2022-12-20T08:37:35.890Z,26.85
2022-12-20T08:40:03.616Z,24.10
2022-12-20T08:42:34.024Z,23.95
2022-12-20T08:45:01.457Z,25.25
2022-12-20T08:47:30.107Z,24.13
2022-12-20T08:49:57.670Z,24.08
2022-12-20T08:52:25.121Z,23.45
2022-12-20T08:54:52.883Z,24.30
2022-12-20T08:57:20.234Z,26.05
2022-12-20T08:59:47.655Z,23.02
2022-12-20T09:02:15.297Z,28.25
2022-12-20T09:04:44.479Z,24.65
2022-12-20T09:07:12.479Z,24.48
2022-12-20T09:09:39.879Z,25.35
2022-12-20T09:12:07.858Z,28.27
2022-12-20T09:14:35.202Z,25.05
2022-12-20T09:17:02.505Z,23.80
2022-12-20T09:19:31.132Z,25.00
2022-12-20T09:21:58.616Z,25.00
2022-12-20T09:24:26.119Z,26.33
2022-12-20T09:26:53.625Z,28.63
2022-12-20T09:29:26.966Z,27.38
2022-12-20T09:31:55.984Z,23.87
2022-12-20T09:34:23.365Z,26.67
2022-12-20T09:36:50.698Z,23.45
2022-12-20T09:39:19.346Z,28.67
2022-12-20T09:41:47.024Z,23.77
2022-12-20T09:44:19.711Z,26.30
2022-12-20T09:47:09.809Z,25.13
2022-12-20T09:49:43.362Z,28.25
2022-12-20T09:52:40.900Z,29.75
2022-12-20T09:55:11.175Z,24.52
2022-12-20T09:58:02.336Z,24.52
2022-12-20T10:00:30.712Z,21.15
2022-12-20T10:03:08.958Z,24.83
2022-12-20T10:05:55.404Z,22.35
2022-12-20T10:08:46.490Z,24.08
2022-12-20T10:11:50.185Z,23.45
2022-12-20T10:14:34.556Z,24.70
2022-12-20T10:17:11.043Z,23.67
2022-12-20T10:20:00.775Z,24.50
2022-12-20T10:22:46.887Z,27.33
2022-12-20T10:25:23.241Z,25.23
2022-12-20T10:27:54.399Z,22.45
2022-12-20T10:30:24.774Z,20.58
2022-12-20T10:32:55.252Z,25.98
2022-12-20T10:35:34.099Z,28.15
2022-12-20T10:38:12.521Z,22.05
2022-12-20T10:46:09.039Z,22.02
2022-12-20T10:48:39.802Z,23.02
2022-12-20T10:51:15.518Z,22.60
2022-12-20T10:53:51.720Z,24.42
2022-12-20T10:56:19.886Z,19.00
2022-12-20T10:59:17.759Z,19.10
2022-12-20T11:01:47.132Z,21.33
2022-12-20T11:04:30.129Z,20.75
2022-12-20T11:07:00.048Z,21.75
2022-12-20T11:09:31.023Z,24.40
2022-12-20T11:12:12.154Z,21.85
2022-12-20T11:14:40.669Z,19.55
2022-12-20T11:17:20.273Z,19.42
2022-12-20T11:20:16.418Z,19.80
2022-12-20T11:22:57.694Z,20.40
2022-12-20T11:25:44.036Z,19.23
2022-12-20T11:28:21.865Z,20.15
2022-12-20T11:31:06.494Z,24.08
2022-12-20T11:33:56.048Z,19.95
2022-12-20T11:37:00.512Z,23.10
2022-12-20T11:39:46.301Z,21.90
2022-12-20T11:42:25.878Z,21.35
2022-12-20T11:45:28.637Z,23.42
2022-12-20T11:48:15.825Z,19.80
2022-12-20T11:51:03.821Z,24.35
2022-12-20T11:53:53.328Z,26.70
2022-12-20T11:56:43.960Z,20.00
2022-12-20T11:59:45.780Z,18.55
2022-12-20T12:02:23.922Z,21.30
2022-12-20T12:04:59.944Z,18.98
2022-12-20T12:07:31.164Z,20.27
2022-12-20T12:10:00.027Z,24.77
2022-12-20T12:13:05.740Z,22.23
2022-12-20T12:15:54.283Z,24.00
2022-12-20T12:18:24.756Z,22.67
2022-12-20T12:21:03.503Z,19.60
2022-12-20T12:23:51.324Z,17.88
2022-12-20T12:26:27.709Z,20.27
2022-12-20T12:29:01.131Z,18.85
2022-12-20T12:32:02.638Z,21.35
2022-12-20T12:34:58.413Z,19.15
2022-12-20T12:37:28.835Z,21.00
2022-12-20T12:40:28.347Z,21.58
2022-12-20T12:43:06.150Z,20.88
2022-12-20T12:45:43.914Z,19.35
2022-12-20T12:48:27.821Z,18.27
2022-12-20T12:50:57.452Z,21.02
2022-12-20T12:53:43.252Z,18.77
2022-12-20T12:56:43.268Z,18.08
2022-12-20T12:59:20.216Z,20.92
2022-12-20T13:01:56.025Z,16.95
2022-12-20T13:04:26.871Z,19.00
2022-12-20T13:07:00.605Z,19.23
2022-12-20T13:09:28.403Z,19.65
2022-12-20T13:12:01.320Z,18.42
2022-12-20T13:14:29.612Z,18.85
2022-12-20T13:17:14.660Z,17.38
2022-12-20T13:19:52.442Z,17.02
2022-12-20T13:22:26.842Z,19.27
2022-12-20T13:25:04.141Z,21.05
2022-12-20T13:27:41.982Z,17.35
2022-12-20T13:30:12.215Z,21.20
2022-12-20T13:32:48.892Z,17.98
2022-12-20T13:35:25.840Z,19.15
2022-12-20T13:38:06.093Z,18.70
2022-12-20T13:40:56.473Z,19.48
2022-12-20T13:43:23.710Z,18.23
2022-12-20T13:45:58.066Z,17.02
2022-12-20T13:48:41.777Z,17.65
2022-12-20T13:51:10.820Z,22.25
2022-12-20T13:53:38.814Z,21.40
2022-12-20T13:56:27.908Z,17.55
2022-12-20T13:58:57.511Z,21.95
2022-12-20T14:01:25.573Z,19.25
2022-12-20T14:03:53.612Z,23.85
2022-12-20T14:06:26.589Z,23.40
2022-12-20T14:08:54.828Z,19.85
2022-12-20T14:11:27.135Z,20.05
2022-12-20T14:13:59.949Z,22.30
2022-12-20T15:09:14.110Z,21.45
2022-12-20T16:07:16.874Z,22.50
2022-12-20T16:18:42.107Z,23.48
2022-12-20T17:47:04.208Z,30.27
2022-12-20T19:05:55.125Z,26.58
2022-12-20T19:08:23.105Z,28.10
